Time;durP1;ratioP1;P1;durP2;ratioP2;P2;SDS_P1;SDS_P2;PMS_P1;PMS_P2;Temp;Humidity;BMP_temperature;BMP_pressure;BME280_temperature;BME280_humidity;BME280_pressure;Samples;Min_cycle;Max_cycle;Signal;HPM_P1;HPM_P2
2023/04/23 00:01:18;;;;;;;1999.90;999.90;;;;;;;15.46;100.00;94749.09;4986191;28;20212;-59
2023/04/23 00:03:43;;;;;;;1999.90;999.90;;;;;;;15.44;100.00;94744.06;4986096;28;20196;-60
2023/04/23 00:06:09;;;;;;;1999.90;999.90;;;;;;;15.42;100.00;94742.97;4969671;28;20203;-60
2023/04/23 00:08:39;;;;;;;1999.90;999.90;;;;;;;15.41;100.00;94742.19;4985518;28;20199;-60
2023/04/23 00:11:05;;;;;;;1999.90;999.90;;;;;;;15.41;100.00;94741.44;4986433;28;20271;-58
2023/04/23 00:13:31;;;;;;;1999.90;999.90;;;;;;;15.37;100.00;94736.06;4985671;28;20192;-59
2023/04/23 00:15:56;;;;;;;1999.90;999.90;;;;;;;15.36;100.00;94734.53;4969966;28;20199;-59
2023/04/23 00:18:22;;;;;;;1999.90;999.90;;;;;;;15.36;100.00;94734.53;4969390;28;20216;-59
2023/04/23 00:20:47;;;;;;;1999.90;999.90;;;;;;;15.34;100.00;94734.16;4985659;28;20275;-59
2023/04/23 00:23:13;;;;;;;1999.90;999.90;;;;;;;15.32;100.00;94736.63;4985474;28;20255;-59
2023/04/23 00:25:38;;;;;;;1999.90;999.90;;;;;;;15.31;100.00;94721.34;4985526;28;20283;-59
2023/04/23 00:28:04;;;;;;;1999.90;999.90;;;;;;;15.31;100.00;94721.34;4985480;28;20176;-59
2023/04/23 00:30:29;;;;;;;1999.90;999.90;;;;;;;15.29;100.00;94718.25;4969323;28;20211;-59
2023/04/23 00:32:54;;;;;;;1999.90;999.90;;;;;;;15.27;100.00;94714.44;4985352;28;20223;-59
2023/04/23 00:35:20;;;;;;;1999.90;999.90;;;;;;;15.29;100.00;94720.22;4985279;28;20235;-59
2023/04/23 00:37:45;;;;;;;1999.90;999.90;;;;;;;15.30;100.00;94714.28;4969380;28;20206;-59
2023/04/23 00:40:11;;;;;;;1999.90;999.90;;;;;;;15.31;100.00;94726.84;4985667;28;20212;-59
2023/04/23 00:42:38;;;;;;;1999.90;999.90;;;;;;;15.31;100.00;94721.34;4985105;28;20196;-60
2023/04/23 00:45:07;;;;;;;1999.90;999.90;;;;;;;15.31;100.00;94726.84;4985314;28;20200;-59
2023/04/23 00:47:33;;;;;;;1999.90;999.90;;;;;;;15.29;100.00;94721.00;4985125;28;20203;-59
2023/04/23 00:49:59;;;;;;;1999.90;999.90;;;;;;;15.26;100.00;94719.16;4985071;28;20196;-58
2023/04/23 00:52:24;;;;;;;1999.90;999.90;;;;;;;15.11;100.00;94711.88;4985006;28;20184;-59
2023/04/23 00:54:49;;;;;;;1999.90;999.90;;;;;;;15.22;100.00;94724.03;4985221;28;20196;-59
2023/04/23 00:57:15;;;;;;;1999.90;999.90;;;;;;;15.21;100.00;94717.00;4984880;28;20224;-59
2023/04/23 00:59:41;;;;;;;1999.90;999.90;;;;;;;15.22;100.00;94718.53;4985325;28;20220;-59
2023/04/23 01:02:07;;;;;;;1999.90;999.90;;;;;;;15.16;100.00;94720.31;4985440;28;20267;-59
2023/04/23 01:04:33;;;;;;;1999.90;999.90;;;;;;;15.10;100.00;94722.13;4984895;28;20200;-60
2023/04/23 01:06:59;;;;;;;1999.90;999.90;;;;;;;15.08;100.00;94713.53;4985173;28;20199;-58
2023/04/23 01:09:26;;;;;;;1999.90;999.90;;;;;;;15.07;100.00;94717.50;4984322;28;20200;-58
2023/04/23 01:11:52;;;;;;;1999.90;999.90;;;;;;;15.06;100.00;94715.97;4968619;28;20242;-59
2023/04/23 01:14:18;;;;;;;1999.90;999.90;;;;;;;15.03;100.00;94708.63;4984946;28;20204;-59
2023/04/23 01:16:43;;;;;;;1999.90;999.90;;;;;;;15.04;100.00;94718.41;4984659;28;20241;-59
2023/04/23 01:19:09;;;;;;;1999.90;999.90;;;;;;;15.04;100.00;94712.16;4984925;28;20243;-58
2023/04/23 01:21:36;;;;;;;1999.90;999.90;;;;;;;15.04;100.00;94717.66;4984691;28;20197;-59
2023/04/23 01:24:03;;;;;;;1999.90;999.90;;;;;;;15.03;100.00;94711.38;4984925;28;20308;-59
2023/04/23 01:26:29;;;;;;;1999.90;999.90;;;;;;;15.03;100.00;94710.59;4984419;28;20200;-59
2023/04/23 01:28:54;;;;;;;1999.90;999.90;;;;;;;15.01;100.00;94711.03;4984935;28;20173;-59
2023/04/23 01:31:20;;;;;;;1999.90;999.90;;;;;;;14.98;100.00;94700.97;4985205;28;20192;-59
2023/04/23 01:33:47;;;;;;;1999.90;999.90;;;;;;;14.97;100.00;94701.41;4985104;28;20216;-59
2023/04/23 01:36:13;;;;;;;1999.90;999.90;;;;;;;14.95;100.00;94703.81;4984706;28;20215;-59
2023/04/23 01:38:39;;;;;;;1999.90;999.90;;;;;;;14.91;100.00;94706.72;4984495;28;20196;-59
2023/04/23 01:41:05;;;;;;;1999.90;999.90;;;;;;;14.88;100.00;94704.84;4984643;28;20217;-59
2023/04/23 01:43:30;;;;;;;1999.90;999.90;;;;;;;14.86;100.00;94707.25;4984674;28;20203;-58
2023/04/23 01:45:57;;;;;;;1999.90;999.90;;;;;;;14.87;100.00;94708.81;4968545;28;20203;-58
2023/04/23 01:48:23;;;;;;;1999.90;999.90;;;;;;;14.85;100.00;94716.72;4984675;28;20231;-59
2023/04/23 01:50:50;;;;;;;1999.90;999.90;;;;;;;14.73;100.00;94712.06;4968869;28;20201;-58
2023/04/23 01:53:15;;;;;;;1999.90;999.90;;;;;;;14.67;100.00;94716.59;4984562;28;20196;-59
2023/04/23 01:55:44;;;;;;;1999.90;999.90;;;;;;;14.62;100.00;94714.41;4984829;28;20207;-60
2023/04/23 01:58:09;;;;;;;1999.90;999.90;;;;;;;14.59;100.00;94720.03;4984915;28;20177;-59
2023/04/23 02:00:35;;;;;;;1999.90;999.90;;;;;;;14.51;100.00;94713.25;4968510;28;20219;-60
2023/04/23 02:03:01;;;;;;;1999.90;999.90;;;;;;;14.53;100.00;94716.31;4984366;28;20204;-59
2023/04/23 02:05:28;;;;;;;1999.90;999.90;;;;;;;14.54;100.00;94717.84;4984540;28;20204;-59
2023/04/23 02:07:53;;;;;;;1999.90;999.90;;;;;;;14.57;100.00;94723.22;4984351;28;20196;-60
2023/04/23 02:10:19;;;;;;;1999.90;999.90;;;;;;;14.53;100.00;94711.56;4984247;28;20205;-60
2023/04/23 02:12:46;;;;;;;1999.90;999.90;;;;;;;14.54;100.00;94723.34;4968323;28;20222;-60
2023/04/23 02:15:12;;;;;;;1999.90;999.90;;;;;;;14.53;100.00;94719.81;4984703;28;20208;-60
2023/04/23 02:17:38;;;;;;;1999.90;999.90;;;;;;;14.56;100.00;94721.69;4984377;28;20200;-60
2023/04/23 02:20:06;;;;;;;1999.90;999.90;;;;;;;14.55;100.00;94725.66;4969362;28;20216;-59
2023/04/23 02:22:31;;;;;;;1999.90;999.90;;;;;;;14.52;100.00;94723.78;4987944;28;20194;-60
2023/04/23 02:24:57;;;;;;;1999.90;999.90;;;;;;;14.53;100.00;94716.31;4987886;28;20271;-61
2023/04/23 02:27:22;;;;;;;1999.90;999.90;;;;;;;14.49;100.00;94713.69;4987675;28;20176;-60
2023/04/23 02:29:48;;;;;;;1999.90;999.90;;;;;;;14.50;100.00;94717.97;4987998;28;20203;-59
2023/04/23 02:32:14;;;;;;;1999.90;999.90;;;;;;;14.48;100.00;94714.91;4987976;28;20216;-59
2023/04/23 02:34:39;;;;;;;1999.90;999.90;;;;;;;14.41;100.00;94704.16;4971732;28;20243;-59
2023/04/23 02:37:05;;;;;;;1999.90;999.90;;;;;;;14.40;100.00;94708.13;4987510;28;20195;-59
2023/04/23 02:39:31;;;;;;;1999.90;999.90;;;;;;;14.33;100.00;94719.34;4971099;28;20212;-59
2023/04/23 02:41:57;;;;;;;1999.90;999.90;;;;;;;14.36;100.00;94714.94;4987500;28;20200;-59
2023/04/23 02:44:23;;;;;;;1999.90;999.90;;;;;;;14.36;100.00;94718.47;4987288;28;20198;-59
2023/04/23 02:46:48;;;;;;;1999.90;999.90;;;;;;;14.38;100.00;94720.78;4971086;28;20192;-59
2023/04/23 02:49:14;;;;;;;1999.90;999.90;;;;;;;14.36;100.00;94729.44;4987436;28;20192;-59
2023/04/23 02:51:39;;;;;;;1999.90;999.90;;;;;;;14.37;100.00;94724.72;4987265;28;20199;-59
2023/04/23 02:54:05;;;;;;;1999.90;999.90;;;;;;;14.35;100.00;94716.91;4987629;28;20239;-58
2023/04/23 02:56:30;;;;;;;1999.90;999.90;;;;;;;14.32;100.00;94717.81;4987529;28;20199;-60
2023/04/23 02:58:56;;;;;;;1999.90;999.90;;;;;;;14.33;100.00;94718.56;4971394;28;20296;-59
2023/04/23 03:01:21;;;;;;;1999.90;999.90;;;;;;;14.24;100.00;94722.00;4987657;28;20223;-59
2023/04/23 03:03:47;;;;;;;1999.90;999.90;;;;;;;14.23;100.00;94719.69;4987278;28;20228;-59
2023/04/23 03:06:12;;;;;;;1999.90;999.90;;;;;;;14.18;100.00;94728.47;4987016;28;20207;-59
2023/04/23 03:08:38;;;;;;;1999.90;999.90;;;;;;;14.14;100.00;94722.31;4986734;28;20263;-59
2023/04/23 03:11:03;;;;;;;1999.90;999.90;;;;;;;14.12;100.00;94725.50;4986825;28;20200;-59
2023/04/23 03:13:28;;;;;;;1999.90;999.90;;;;;;;14.08;100.00;94729.56;4986978;28;20248;-59
2023/04/23 03:15:54;;;;;;;1999.90;999.90;;;;;;;14.05;100.00;94730.44;4986695;28;20200;-59
2023/04/23 03:18:20;;;;;;;1999.90;999.90;;;;;;;14.08;100.00;94722.09;4986702;28;20192;-59
2023/04/23 03:20:46;;;;;;;1999.90;999.90;;;;;;;14.08;100.00;94735.84;4986684;28;20239;-59
2023/04/23 03:23:11;;;;;;;1999.90;999.90;;;;;;;14.11;100.00;94732.22;4986650;28;20196;-59
2023/04/23 03:25:36;;;;;;;1999.90;999.90;;;;;;;14.10;100.00;94738.16;4986662;28;20232;-59
2023/04/23 03:28:02;;;;;;;1999.90;999.90;;;;;;;14.13;100.00;94742.75;4986412;28;20200;-59
2023/04/23 03:30:28;;;;;;;1999.90;999.90;;;;;;;14.15;100.00;94734.84;4987053;28;20175;-59
2023/04/23 03:32:58;;;;;;;1999.90;999.90;;;;;;;14.16;100.00;94737.13;4985894;28;20272;-59
2023/04/23 03:35:25;;;;;;;1999.90;999.90;;;;;;;14.17;100.00;94743.41;4986348;28;20228;-59
2023/04/23 03:37:50;;;;;;;1999.90;999.90;;;;;;;14.18;100.00;94728.47;4986230;28;20211;-59
2023/04/23 03:40:15;;;;;;;1999.90;999.90;;;;;;;14.18;100.00;94737.47;4986730;28;20212;-59
2023/04/23 03:42:41;;;;;;;1999.90;999.90;;;;;;;14.18;100.00;94734.72;4986145;28;20232;-59
2023/04/23 03:45:07;;;;;;;1999.90;999.90;;;;;;;14.22;100.00;94742.88;4986543;28;20200;-59
2023/04/23 03:47:32;;;;;;;1999.90;999.90;;;;;;;14.21;100.00;94744.84;4986190;28;20200;-59
2023/04/23 03:49:57;;;;;;;1999.90;999.90;;;;;;;14.16;100.00;94741.88;4986256;28;20312;-59
2023/04/23 03:52:23;;;;;;;1999.90;999.90;;;;;;;14.18;100.00;94740.22;4986358;28;20227;-59
2023/04/23 03:54:48;;;;;;;1999.90;999.90;;;;;;;14.16;100.00;94748.13;4985958;28;20197;-59
2023/04/23 03:57:13;;;;;;;1999.90;999.90;;;;;;;14.17;100.00;94748.91;4985736;28;20200;-59
2023/04/23 03:59:39;;;;;;;1999.90;999.90;;;;;;;14.19;100.00;94749.22;4985774;28;20200;-59
2023/04/23 04:02:05;;;;;;;1999.90;999.90;;;;;;;14.21;100.00;94750.34;4969991;28;20212;-58
2023/04/23 04:04:31;;;;;;;1999.90;999.90;;;;;;;14.21;100.00;94750.34;4986274;28;20247;-58
2023/04/23 04:06:57;;;;;;;1999.90;999.90;;;;;;;14.22;100.00;94751.88;4985996;28;20210;-58
2023/04/23 04:09:22;;;;;;;1999.90;999.90;;;;;;;14.26;100.00;94752.53;4986174;28;20275;-58
2023/04/23 04:11:48;;;;;;;1999.90;999.90;;;;;;;14.26;100.00;94751.75;4985755;28;20204;-58
2023/04/23 04:14:13;;;;;;;1999.90;999.90;;;;;;;14.25;100.00;94759.25;4985740;28;20196;-58
2023/04/23 04:16:39;;;;;;;1999.90;999.90;;;;;;;13.77;100.00;94754.06;4985494;28;20200;-59
2023/04/23 04:19:06;;;;;;;1999.90;999.90;;;;;;;14.19;100.00;94757.44;4985687;28;20219;-58
2023/04/23 04:21:32;;;;;;;1999.90;999.90;;;;;;;14.22;100.00;94757.38;4986062;28;20196;-58
2023/04/23 04:24:00;;;;;;;1999.90;999.90;;;;;;;14.21;100.00;94761.31;4969901;28;20223;-58
2023/04/23 04:26:26;;;;;;;1999.90;999.90;;;;;;;14.25;100.00;94767.50;4985292;28;20213;-60
2023/04/23 04:28:52;;;;;;;1999.90;999.90;;;;;;;14.22;100.00;94767.59;4985871;28;20219;-58
2023/04/23 04:31:19;;;;;;;1999.90;999.90;;;;;;;14.19;100.00;94774.72;4985856;28;20207;-59
2023/04/23 04:33:45;;;;;;;1999.90;999.90;;;;;;;14.14;100.00;94775.28;4985721;28;20192;-58
2023/04/23 04:36:10;;;;;;;1999.90;999.90;;;;;;;14.16;100.00;94775.59;4985621;28;20267;-58
2023/04/23 04:38:38;;;;;;;1999.90;999.90;;;;;;;14.18;100.00;94778.66;4985337;28;20196;-59
2023/04/23 04:41:05;;;;;;;1999.90;999.90;;;;;;;14.17;100.00;94777.13;4985445;28;20244;-59
2023/04/23 04:43:31;;;;;;;1999.90;999.90;;;;;;;14.04;100.00;94784.59;4968858;28;20207;-59
2023/04/23 04:45:57;;;;;;;1999.90;999.90;;;;;;;13.93;100.00;94789.66;4985283;28;20204;-59
2023/04/23 04:48:23;;;;;;;1999.90;999.90;;;;;;;13.72;100.00;94790.31;4985021;28;20197;-59
2023/04/23 04:50:49;;;;;;;1999.90;999.90;;;;;;;13.62;100.00;94780.41;4985212;28;20315;-59
2023/04/23 04:53:14;;;;;;;1999.90;999.90;;;;;;;13.50;100.00;94783.91;4969499;28;20274;-58
2023/04/23 04:55:40;;;;;;;1999.90;999.90;;;;;;;13.36;100.00;94778.81;4985478;28;20197;-58
2023/04/23 04:58:06;;;;;;;1999.90;999.90;;;;;;;13.32;100.00;94772.69;4985304;28;20180;-58
2023/04/23 05:00:31;;;;;;;1999.90;999.90;;;;;;;13.32;100.00;94759.75;4985098;28;20220;-58
2023/04/23 05:02:57;;;;;;;1999.90;999.90;;;;;;;13.24;100.00;94760.38;4985161;28;20260;-59
2023/04/23 05:05:25;;;;;;;1999.90;999.90;;;;;;;13.21;100.00;94744.78;4984587;28;20239;-59
2023/04/23 05:07:53;;;;;;;1999.90;999.90;;;;;;;13.16;100.00;94748.09;4985434;28;20204;-59
2023/04/23 05:10:19;;;;;;;1999.90;999.90;;;;;;;13.17;100.00;94728.47;4984680;28;20204;-59
2023/04/23 05:12:45;;;;;;;1999.90;999.90;;;;;;;13.18;100.00;94720.97;4985079;28;20201;-59
2023/04/23 05:15:12;;;;;;;1999.90;999.90;;;;;;;13.18;100.00;94710.00;4984801;28;20231;-58
2023/04/23 05:17:39;;;;;;;1999.90;999.90;;;;;;;13.23;100.00;94709.50;4984952;28;20204;-59
2023/04/23 05:20:07;;;;;;;1999.90;999.90;;;;;;;13.21;100.00;94706.41;4984732;28;20223;-59
2023/04/23 05:22:32;;;;;;;1999.90;999.90;;;;;;;13.29;100.00;94707.72;4984785;28;20204;-58
2023/04/23 05:24:57;;;;;;;1999.90;999.90;;;;;;;13.22;100.00;94705.97;4984477;28;20209;-58
2023/04/23 05:27:23;;;;;;;1999.90;999.90;;;;;;;13.30;100.00;94709.28;4984466;28;20183;-58
2023/04/23 05:29:48;;;;;;;1999.90;999.90;;;;;;;13.41;100.00;94709.75;4984598;28;20207;-59
2023/04/23 05:32:13;;;;;;;1999.90;999.90;;;;;;;13.41;100.00;94712.47;4968851;28;20203;-59
2023/04/23 05:34:39;;;;;;;1999.90;999.90;;;;;;;13.51;100.00;94714.13;4984850;28;20208;-61
2023/04/23 05:37:05;;;;;;;1999.90;999.90;;;;;;;13.46;100.00;94711.16;4984948;28;20196;-58
2023/04/23 05:39:30;;;;;;;1999.90;999.90;;;;;;;13.58;100.00;94719.38;4984733;28;20239;-58
2023/04/23 05:41:56;;;;;;;1999.90;999.90;;;;;;;13.63;100.00;94721.59;4984600;28;20200;-58
2023/04/23 05:44:22;;;;;;;1999.90;999.90;;;;;;;13.58;100.00;94718.63;4984697;28;20260;-58
2023/04/23 05:46:47;;;;;;;1999.90;999.90;;;;;;;13.57;100.00;94719.81;4984774;28;20201;-58
2023/04/23 05:49:13;;;;;;;1999.90;999.90;;;;;;;13.61;100.00;94718.50;4984466;28;20218;-58
2023/04/23 05:51:38;;;;;;;1999.90;999.90;;;;;;;13.62;100.00;94719.28;4984614;28;20192;-58
2023/04/23 05:54:03;;;;;;;1999.90;999.90;;;;;;;13.53;100.00;94711.72;4968575;28;20268;-58
2023/04/23 05:56:29;;;;;;;1999.90;999.90;;;;;;;13.54;100.00;94710.50;4971681;28;20192;-58
2023/04/23 05:58:54;;;;;;;1999.90;999.90;;;;;;;13.49;100.00;94705.56;4988533;28;20173;-58
2023/04/23 06:01:19;;;;;;;1999.90;999.90;;;;;;;13.46;100.00;94695.47;4988112;28;20216;-59
2023/04/23 06:03:45;;;;;;;1999.90;999.90;;;;;;;13.47;100.00;94696.25;4972116;28;20242;-59
2023/04/23 06:06:11;;;;;;;1999.90;999.90;;;;;;;13.43;100.00;94690.09;4988357;28;20208;-58
2023/04/23 06:08:37;;;;;;;1999.90;999.90;;;;;;;13.41;100.00;94678.78;4988029;28;20196;-59
2023/04/23 06:11:03;;;;;;;1999.90;999.90;;;;;;;13.48;100.00;94665.63;4988366;28;20211;-61
2023/04/23 06:13:29;;;;;;;1999.90;999.90;;;;;;;13.33;100.00;94667.25;4988136;28;20232;-59
2023/04/23 06:15:55;;;;;;;1999.90;999.90;;;;;;;13.40;100.00;94656.06;4987970;28;20216;-58
2023/04/23 06:18:21;;;;;;;1999.90;999.90;;;;;;;13.34;100.00;94644.13;4987909;28;20203;-59
2023/04/23 06:20:47;;;;;;;1999.90;999.90;;;;;;;13.20;100.00;94633.59;4987786;28;20284;-58
2023/04/23 06:23:13;;;;;;;1999.90;999.90;;;;;;;13.17;100.00;94609.78;4987833;28;20204;-58
2023/04/23 06:25:39;;;;;;;1999.90;999.90;;;;;;;13.07;100.00;94588.94;4987406;28;20212;-59
2023/04/23 06:28:05;;;;;;;1999.90;999.90;;;;;;;13.06;100.00;94566.25;4987725;28;20200;-59
2023/04/23 06:30:31;;;;;;;1999.90;999.90;;;;;;;13.04;100.00;94554.22;4988111;28;20247;-58
2023/04/23 06:32:56;;;;;;;1999.90;999.90;;;;;;;13.13;100.00;94524.94;4987997;28;20201;-58
2023/04/23 06:35:21;;;;;;;1999.90;999.90;;;;;;;13.10;100.00;94505.84;4988070;28;20204;-59
2023/04/23 06:37:47;;;;;;;1999.90;999.90;;;;;;;13.07;100.00;94479.31;4987496;28;20216;-58
2023/04/23 06:40:12;;;;;;;1999.90;999.90;;;;;;;13.11;100.00;94466.25;4987437;28;20231;-58
2023/04/23 06:42:38;;;;;;;1999.90;999.90;;;;;;;13.10;100.00;94437.31;4971151;28;20211;-59
2023/04/23 06:45:03;;;;;;;1999.90;999.90;;;;;;;13.04;100.00;94414.41;4987374;28;20199;-58
2023/04/23 06:47:30;;;;;;;1999.90;999.90;;;;;;;12.99;100.00;94379.34;4971092;28;20197;-58
2023/04/23 06:49:56;;;;;;;1999.90;999.90;;;;;;;12.88;100.00;94404.34;4970997;28;20259;-59
2023/04/23 06:52:22;;;;;;;1999.90;999.90;;;;;;;12.94;100.00;94320.34;4987368;28;20197;-59
2023/04/23 06:54:47;;;;;;;1999.90;999.90;;;;;;;12.94;100.00;94166.13;4987179;28;20255;-59
2023/04/23 06:57:12;;;;;;;1999.90;999.90;;;;;;;12.95;100.00;94096.41;4987224;28;20200;-60
2023/04/23 06:59:38;;;;;;;1999.90;999.90;;;;;;;13.01;100.00;94009.69;4986898;28;20204;-61
2023/04/23 07:02:03;;;;;;;1999.90;999.90;;;;;;;12.96;100.00;93753.44;4971332;28;20269;-61
2023/04/23 07:04:28;;;;;;;1999.90;999.90;;;;;;;13.01;100.00;93689.81;4987502;28;20271;-61
2023/04/23 07:06:54;;;;;;;1999.90;999.90;;;;;;;13.14;100.00;93621.09;4987294;28;20212;-60
2023/04/23 07:09:19;;;;;;;1999.90;999.90;;;;;;;13.10;100.00;93587.63;4987419;28;20227;-60
2023/04/23 07:11:45;;;;;;;1999.90;999.90;;;;;;;13.14;100.00;93575.28;4970757;28;20207;-60
2023/04/23 07:14:10;;;;;;;1999.90;999.90;;;;;;;13.11;100.00;93561.72;4986704;28;20248;-60
2023/04/23 07:16:35;;;;;;;1999.90;999.90;;;;;;;13.04;100.00;93545.66;4986921;28;20204;-61
2023/04/23 07:19:01;;;;;;;1999.90;999.90;;;;;;;12.98;100.00;93515.38;4986910;28;20196;-61
2023/04/23 07:21:27;;;;;;;1999.90;999.90;;;;;;;13.01;100.00;93489.75;4986795;28;20216;-61
2023/04/23 07:23:55;;;;;;;1999.90;999.90;;;;;;;13.05;100.00;93470.44;4970619;28;20192;-61
2023/04/23 07:26:20;;;;;;;1999.90;999.90;;;;;;;13.17;100.00;93444.75;4987047;28;20215;-61
2023/04/23 07:28:47;;;;;;;1999.90;999.90;;;;;;;13.18;100.00;93427.84;4986491;28;20188;-61
2023/04/23 07:31:13;;;;;;;1999.90;999.90;;;;;;;13.08;100.00;93415.44;4986985;28;20188;-61
2023/04/23 07:33:38;;;;;;;1999.90;999.90;;;;;;;13.03;100.00;93412.56;4986959;28;20204;-62
2023/04/23 07:36:04;;;;;;;1999.90;999.90;;;;;;;13.01;100.00;93393.13;4986731;28;20208;-60
2023/04/23 07:38:29;;;;;;;1999.90;999.90;;;;;;;12.90;100.00;93393.59;4986249;28;20279;-60
2023/04/23 07:40:54;;;;;;;1999.90;999.90;;;;;;;12.91;100.00;93372.47;4970515;28;20219;-60
2023/04/23 07:43:20;;;;;;;1999.90;999.90;;;;;;;12.90;100.00;93370.94;4970601;28;20211;-60
2023/04/23 07:45:45;;;;;;;1999.90;999.90;;;;;;;13.00;100.00;93334.81;4986279;28;20208;-61
2023/04/23 07:48:11;;;;;;;1999.90;999.90;;;;;;;13.13;100.00;93312.63;4986091;28;20367;-60
2023/04/23 07:50:36;;;;;;;1999.90;999.90;;;;;;;13.12;100.00;93289.22;4986294;28;20282;-60
2023/04/23 07:53:02;;;;;;;1999.90;999.90;;;;;;;13.06;100.00;93291.06;4985996;28;20227;-61
2023/04/23 07:55:27;;;;;;;1999.90;999.90;;;;;;;13.13;100.00;93287.97;4986031;28;20192;-61
2023/04/23 07:57:53;;;;;;;1999.90;999.90;;;;;;;13.08;100.00;93288.63;4986006;28;20200;-62
2023/04/23 08:00:18;;;;;;;1999.90;999.90;;;;;;;13.06;100.00;93285.59;4969791;28;20220;-61
2023/04/23 08:02:43;;;;;;;1999.90;999.90;;;;;;;13.03;100.00;93292.00;4985981;28;20188;-61
2023/04/23 08:05:09;;;;;;;1999.90;999.90;;;;;;;12.96;100.00;93286.88;4986270;28;20204;-63
2023/04/23 08:07:35;;;;;;;1999.90;999.90;;;;;;;12.99;100.00;93283.22;4985956;28;20239;-62
2023/04/23 08:10:04;;;;;;;1999.90;999.90;;;;;;;13.06;100.00;93269.16;4986018;28;20208;-62
2023/04/23 08:12:32;;;;;;;1999.90;999.90;;;;;;;13.02;100.00;93271.31;4985931;28;20204;-61
2023/04/23 08:14:58;;;;;;;1999.90;999.90;;;;;;;12.98;100.00;93273.50;4985660;28;20241;-60
2023/04/23 08:17:23;;;;;;;1999.90;999.90;;;;;;;13.02;100.00;93263.09;4985376;28;20208;-60
2023/04/23 08:19:48;;;;;;;1999.90;999.90;;;;;;;13.09;100.00;93246.28;4985454;28;20216;-59
2023/04/23 08:22:15;;;;;;;1999.90;999.90;;;;;;;13.15;100.00;93227.97;4985479;28;20200;-61
2023/04/23 08:24:41;;;;;;;1999.90;999.90;;;;;;;13.27;100.00;93224.19;4969372;28;20196;-62
2023/04/23 08:27:07;;;;;;;1999.90;999.90;;;;;;;13.45;100.00;93225.97;4985720;28;20203;-60
2023/04/23 08:29:32;;;;;;;1999.90;999.90;;;;;;;13.70;100.00;93217.91;4985518;28;20197;-61
2023/04/23 08:31:57;;;;;;;1999.90;999.90;;;;;;;13.81;100.00;93251.00;4985293;28;20176;-61
2023/04/23 08:34:23;;;;;;;1999.90;999.90;;;;;;;14.19;100.00;93252.78;4985820;28;20204;-61
2023/04/23 08:36:48;;;;;;;1999.90;999.90;;;;;;;14.21;100.00;93308.75;4985594;28;20268;-62
2023/04/23 08:39:13;;;;;;;1999.90;999.90;;;;;;;14.32;100.00;93374.06;4985276;28;20258;-60
2023/04/23 08:41:41;;;;;;;1999.90;999.90;;;;;;;14.33;100.00;93464.22;4985238;28;20208;-60
2023/04/23 08:44:18;;;;;;;1999.90;999.90;;;;;;;14.70;100.00;93514.00;4985135;28;20200;-60
2023/04/23 08:46:44;;;;;;;1999.90;999.90;;;;;;;14.93;100.00;93640.31;4985181;28;20283;-62
2023/04/23 08:49:16;;;;;;;1999.90;999.90;;;;;;;15.49;100.00;93820.88;4985195;28;20192;-58
2023/04/23 08:51:51;;;;;;;1999.90;999.90;;;;;;;16.18;100.00;93962.28;4984996;28;20212;-59
2023/04/23 08:54:27;;;;;;;1999.90;999.90;;;;;;;16.43;100.00;94204.25;4985190;28;20255;-58
2023/04/23 08:56:57;;;;;;;1999.90;999.90;;;;;;;16.36;100.00;94375.44;4985475;28;20202;-60
2023/04/23 08:59:27;;;;;;;1999.90;999.90;;;;;;;16.14;100.00;94496.13;4984910;28;20232;-63
2023/04/23 09:01:53;;;;;;;1999.90;999.90;;;;;;;15.79;100.00;94549.22;4985077;28;20204;-59
2023/04/23 09:04:19;;;;;;;1999.90;999.90;;;;;;;15.64;100.00;94568.31;4968661;28;20200;-59
2023/04/23 09:06:45;;;;;;;1999.90;999.90;;;;;;;15.39;100.00;94559.50;4968967;28;20271;-59
2023/04/23 09:09:14;;;;;;;1999.90;999.90;;;;;;;15.50;100.00;94527.59;4984823;28;20203;-61
2023/04/23 09:11:40;;;;;;;1999.90;999.90;;;;;;;15.72;100.00;94508.97;4984783;28;20200;-62
2023/04/23 09:14:06;;;;;;;1999.90;999.90;;;;;;;15.48;100.00;94513.53;4984885;28;20196;-58
2023/04/23 09:16:31;;;;;;;1999.90;999.90;;;;;;;15.42;100.00;94515.34;4985027;28;20195;-58
2023/04/23 09:18:57;;;;;;;1999.90;999.90;;;;;;;15.59;100.00;94504.84;4968793;28;20243;-59
2023/04/23 09:21:23;;;;;;;1999.90;999.90;;;;;;;15.93;100.00;94480.53;4984624;28;20212;-62
2023/04/23 09:23:51;;;;;;;1999.90;999.90;;;;;;;15.66;100.00;94516.31;4985133;28;20168;-63
2023/04/23 09:26:21;;;;;;;1999.90;999.90;;;;;;;15.41;100.00;94524.06;4984805;28;20207;-60
2023/04/23 09:28:50;;;;;;;1999.90;999.90;;;;;;;15.14;100.00;94521.97;4984960;28;20231;-61
2023/04/23 09:31:22;;;;;;;1999.90;999.90;;;;;;;15.35;100.00;94506.59;4972147;28;20206;-60
2023/04/23 09:33:53;;;;;;;1999.90;999.90;;;;;;;15.90;100.00;94480.69;4988526;28;20227;-61
2023/04/23 09:36:22;;;;;;;1999.90;999.90;;;;;;;15.82;100.00;94523.50;4988718;28;20207;-60
2023/04/23 09:38:49;;;;;;;1999.90;999.90;;;;;;;15.74;100.00;94539.56;4988600;28;20200;-60
2023/04/23 09:41:25;;;;;;;1999.90;999.90;;;;;;;15.55;100.00;94542.75;4988889;28;20212;-60
2023/04/23 09:43:54;;;;;;;1999.90;999.90;;;;;;;15.77;100.00;94538.66;4988552;28;20192;-60
2023/04/23 09:46:33;;;;;;;1999.90;999.90;;;;;;;15.81;100.00;94539.25;4988551;28;20242;-60
2023/04/23 09:49:02;;;;;;;1999.90;999.90;;;;;;;15.71;100.00;94551.50;4972258;28;20200;-60
2023/04/23 09:51:32;;;;;;;1999.90;999.90;;;;;;;15.61;100.00;94560.19;4988589;28;20200;-64
2023/04/23 09:53:57;;;;;;;1999.90;999.90;;;;;;;15.66;100.00;94559.59;4988043;28;20200;-62
2023/04/23 09:56:23;;;;;;;1999.90;999.90;;;;;;;15.80;100.00;94548.75;4988206;28;20201;-61
2023/04/23 09:58:49;;;;;;;1999.90;999.90;;;;;;;15.76;100.00;94559.16;4988340;28;20200;-61
2023/04/23 10:01:14;;;;;;;1999.90;999.90;;;;;;;15.60;100.00;94567.69;4988438;28;20279;-60
2023/04/23 10:03:43;;;;;;;1999.90;999.90;;;;;;;15.35;100.00;94567.91;4988268;28;20236;-60
2023/04/23 10:06:15;;;;;;;1999.90;999.90;;;;;;;15.35;100.00;94556.91;4988485;28;20227;-60
2023/04/23 10:08:42;;;;;;;1999.90;999.90;;;;;;;15.41;100.00;94548.84;4987802;28;20200;-60
2023/04/23 10:11:08;;;;;;;1999.90;999.90;;;;;;;15.51;100.00;94544.84;4988282;28;20219;-61
2023/04/23 10:13:35;;;;;;;1999.90;999.90;;;;;;;15.36;100.00;94541.16;4972076;28;20200;-60
2023/04/23 10:16:03;;;;;;;1999.90;999.90;;;;;;;15.31;100.00;94534.25;4988038;28;20207;-61
2023/04/23 10:18:31;;;;;;;1999.90;999.90;;;;;;;15.45;100.00;94522.69;4987849;28;20268;-60
2023/04/23 10:20:57;;;;;;;1999.90;999.90;;;;;;;15.43;100.00;94525.13;4987422;28;20208;-61
2023/04/23 10:23:23;;;;;;;1999.90;999.90;;;;;;;15.48;100.00;94530.03;4987716;28;20193;-61
2023/04/23 10:25:52;;;;;;;1999.90;999.90;;;;;;;15.78;100.00;94544.94;4987717;28;20200;-63
2023/04/23 10:28:25;;;;;;;1999.90;999.90;;;;;;;15.89;100.00;94551.50;4987768;28;20263;-60
2023/04/23 10:30:52;;;;;;;1999.90;999.90;;;;;;;15.88;100.00;94583.03;4987991;28;20248;-60
2023/04/23 10:33:19;;;;;;;1999.90;999.90;;;;;;;16.16;100.00;94587.34;4987508;28;20189;-63
2023/04/23 10:35:47;;;;;;;1999.90;999.90;;;;;;;16.38;100.00;94603.72;4987620;28;20176;-60
2023/04/23 10:38:14;;;;;;;1999.90;999.90;;;;;;;16.05;100.00;94625.59;4987844;28;20199;-62
2023/04/23 10:40:44;;;;;;;1999.90;999.90;;;;;;;16.03;100.00;94636.28;4986804;28;20208;-68
2023/04/23 10:43:10;;;;;;;1999.90;999.90;;;;;;;16.25;100.00;94616.91;4987507;28;20197;-62